Time;durP1;ratioP1;P1;durP2;ratioP2;P2;SDS_P1;SDS_P2;PMS_P1;PMS_P2;Temp;Humidity;BMP_temperature;BMP_pressure;BME280_temperature;BME280_humidity;BME280_pressure;Samples;Min_cycle;Max_cycle;Signal;HPM_P1;HPM_P2
2023/01/11 04:01:18;;;;;;;1.40;0.60;;;8.10;86.50;;;;;;5757400;23;20503;-66
2023/01/11 04:03:44;;;;;;;1.70;0.70;;;8.10;86.40;;;;;;4994343;28;20429;-65
2023/01/11 04:06:12;;;;;;;1.67;0.90;;;8.10;86.50;;;;;;4994503;28;20496;-65
2023/01/11 04:08:38;;;;;;;1.53;0.73;;;8.10;86.50;;;;;;4994217;28;20445;-65
2023/01/11 04:11:05;;;;;;;1.60;0.80;;;8.10;86.60;;;;;;4993977;28;20520;-66
2023/01/11 04:13:32;;;;;;;1.40;0.60;;;8.10;86.80;;;;;;4993998;28;20445;-65
2023/01/11 04:16:00;;;;;;;1.60;0.70;;;8.00;86.90;;;;;;4995362;28;20489;-66
2023/01/11 04:18:28;;;;;;;2.17;0.80;;;8.00;87.20;;;;;;4994019;28;20532;-65
2023/01/11 04:20:54;;;;;;;1.50;0.70;;;8.00;87.30;;;;;;4993894;28;20469;-65
2023/01/11 04:23:21;;;;;;;1.50;0.67;;;7.90;87.70;;;;;;4993941;28;20452;-65
2023/01/11 04:25:48;;;;;;;1.60;0.70;;;7.90;87.70;;;;;;4993924;28;20437;-65
2023/01/11 04:28:15;;;;;;;1.43;0.60;;;8.00;87.70;;;;;;4993893;28;20508;-65
2023/01/11 04:30:41;;;;;;;1.53;0.70;;;8.00;87.60;;;;;;4993765;28;20527;-65
2023/01/11 04:33:09;;;;;;;1.50;0.67;;;8.00;87.60;;;;;;4993819;28;20480;-65
2023/01/11 04:35:37;;;;;;;1.87;0.70;;;8.00;87.90;;;;;;4993758;28;20487;-66
2023/01/11 04:38:04;;;;;;;2.30;0.90;;;8.00;88.30;;;;;;4996952;28;20441;-66
2023/01/11 04:40:31;;;;;;;1.50;0.60;;;8.00;88.50;;;;;;4997673;28;20484;-65
2023/01/11 04:43:01;;;;;;;1.40;0.60;;;8.10;88.60;;;;;;4997739;28;20445;-65
2023/01/11 04:45:27;;;;;;;1.50;0.60;;;8.20;88.40;;;;;;4997293;28;20798;-66
2023/01/11 04:47:55;;;;;;;1.87;0.60;;;8.30;88.10;;;;;;4997354;28;20508;-66
2023/01/11 04:50:22;;;;;;;1.50;0.70;;;8.20;88.50;;;;;;4997223;28;20508;-66
2023/01/11 04:52:50;;;;;;;1.87;0.80;;;8.20;88.80;;;;;;4997267;28;21001;-65
2023/01/11 04:55:17;;;;;;;1.60;0.70;;;8.20;88.90;;;;;;4997455;28;20485;-65
2023/01/11 04:57:44;;;;;;;1.70;0.60;;;8.20;89.20;;;;;;4997174;28;20449;-66
2023/01/11 05:00:11;;;;;;;1.70;0.70;;;8.30;89.10;;;;;;4997403;28;20453;-66
2023/01/11 05:02:38;;;;;;;1.50;0.60;;;8.40;88.90;;;;;;4996909;28;20853;-65
2023/01/11 05:05:06;;;;;;;1.60;0.70;;;8.50;88.90;;;;;;4997403;28;20457;-65
2023/01/11 05:07:33;;;;;;;1.50;0.70;;;8.50;88.60;;;;;;4997312;28;20457;-65
2023/01/11 05:10:01;;;;;;;1.50;0.70;;;8.60;88.50;;;;;;4997249;28;20453;-66
2023/01/11 05:12:28;;;;;;;1.40;0.60;;;8.50;88.60;;;;;;4997101;28;20469;-65
2023/01/11 05:14:55;;;;;;;1.43;0.67;;;8.70;88.60;;;;;;4997099;28;20543;-65
2023/01/11 05:17:22;;;;;;;2.30;0.60;;;8.70;88.30;;;;;;4997098;28;20453;-66
2023/01/11 05:19:49;;;;;;;4.87;2.97;;;8.60;88.60;;;;;;4996721;28;20873;-65
2023/01/11 05:22:15;;;;;;;2.57;0.80;;;8.70;88.30;;;;;;4996981;28;20496;-66
2023/01/11 05:24:42;;;;;;;1.80;0.80;;;8.80;88.00;;;;;;4996983;28;20856;-65
2023/01/11 05:27:10;;;;;;;2.37;0.60;;;8.80;87.90;;;;;;4996626;28;20869;-66
2023/01/11 05:29:37;;;;;;;1.50;0.70;;;8.70;88.10;;;;;;4996864;28;20456;-66
2023/01/11 05:32:04;;;;;;;1.43;0.63;;;8.70;88.40;;;;;;4996768;28;20504;-65
2023/01/11 05:34:30;;;;;;;1.57;0.80;;;8.70;88.60;;;;;;4996711;28;20535;-66
2023/01/11 05:36:57;;;;;;;1.40;0.60;;;8.60;88.60;;;;;;4996790;28;20449;-66
2023/01/11 05:39:24;;;;;;;1.50;0.70;;;8.60;88.90;;;;;;4996711;28;20453;-65
2023/01/11 05:41:50;;;;;;;1.70;0.70;;;8.60;88.90;;;;;;4996607;28;20469;-66
2023/01/11 05:47:03;;;;;;;1.50;0.60;;;8.60;88.90;;;;;;4996313;28;21030;-66
2023/01/11 05:49:29;;;;;;;2.03;0.80;;;8.60;89.20;;;;;;4995861;28;20453;-66
2023/01/11 05:51:56;;;;;;;1.50;0.60;;;8.70;89.20;;;;;;4996418;28;20465;-65
2023/01/11 05:54:23;;;;;;;1.43;0.73;;;8.70;89.10;;;;;;4996085;28;21019;-66
2023/01/11 05:56:49;;;;;;;1.70;0.70;;;8.80;88.80;;;;;;4996118;28;20938;-65
2023/01/11 05:59:17;;;;;;;1.70;0.67;;;8.80;88.70;;;;;;4996105;28;20507;-65
2023/01/11 06:01:44;;;;;;;2.97;0.80;;;8.80;88.70;;;;;;4995988;28;20531;-66
2023/01/11 06:04:11;;;;;;;1.50;0.80;;;8.80;88.90;;;;;;4996325;28;20499;-66
2023/01/11 06:06:37;;;;;;;1.70;0.80;;;8.90;88.50;;;;;;4995964;28;20860;-65
2023/01/11 06:09:04;;;;;;;1.43;0.60;;;8.80;88.60;;;;;;4996157;28;20520;-65
2023/01/11 06:11:31;;;;;;;1.50;0.70;;;8.80;88.70;;;;;;4996083;28;20473;-66
2023/01/11 06:13:57;;;;;;;1.60;0.63;;;8.90;88.60;;;;;;4996177;28;20499;-65
2023/01/11 06:16:25;;;;;;;1.40;0.60;;;8.70;88.80;;;;;;4995983;28;20477;-65
2023/01/11 06:18:53;;;;;;;1.43;0.60;;;8.70;88.90;;;;;;4996036;28;20446;-65
2023/01/11 06:21:20;;;;;;;1.60;0.73;;;8.80;88.90;;;;;;4995624;28;20986;-66
2023/01/11 06:23:50;;;;;;;1.50;0.70;;;8.70;88.90;;;;;;4995985;28;20453;-65
2023/01/11 06:26:19;;;;;;;1.50;0.80;;;8.70;89.30;;;;;;4995550;28;21026;-66
2023/01/11 06:28:46;;;;;;;1.53;0.80;;;8.60;89.50;;;;;;4995833;28;20503;-65
2023/01/11 06:31:13;;;;;;;1.47;0.70;;;8.60;89.80;;;;;;4995691;28;20461;-65
2023/01/11 06:33:41;;;;;;;1.50;0.60;;;8.60;89.70;;;;;;4995737;28;20524;-66
2023/01/11 06:36:10;;;;;;;1.40;0.60;;;8.60;89.70;;;;;;4996286;28;20585;-65
2023/01/11 06:38:37;;;;;;;1.67;0.70;;;8.80;89.40;;;;;;4995752;28;20449;-65
2023/01/11 06:41:07;;;;;;;1.40;0.60;;;8.80;89.00;;;;;;4995591;28;20473;-65
2023/01/11 06:43:34;;;;;;;1.50;0.70;;;8.70;89.30;;;;;;4995580;28;20561;-65
2023/01/11 06:46:00;;;;;;;1.50;0.70;;;8.80;89.50;;;;;;4995505;28;20495;-66
2023/01/11 06:48:27;;;;;;;1.63;0.80;;;8.80;88.90;;;;;;4995491;28;20476;-66
2023/01/11 06:50:57;;;;;;;1.50;0.70;;;8.80;88.80;;;;;;4995339;28;20473;-66
2023/01/11 06:53:25;;;;;;;1.60;0.60;;;8.90;88.90;;;;;;4995041;28;20946;-65
2023/01/11 06:55:52;;;;;;;1.60;0.63;;;8.90;88.70;;;;;;4995254;28;20531;-65
2023/01/11 06:58:19;;;;;;;2.53;1.63;;;8.90;88.60;;;;;;4995226;28;20453;-66
2023/01/11 07:00:46;;;;;;;1.73;0.80;;;8.90;88.70;;;;;;4993950;28;20485;-67
2023/01/11 07:03:13;;;;;;;1.40;0.60;;;9.10;90.00;;;;;;4995151;28;20430;-65
2023/01/11 07:05:41;;;;;;;1.50;0.70;;;9.20;88.60;;;;;;4994997;28;20544;-65
2023/01/11 07:08:09;;;;;;;1.60;0.70;;;9.30;87.20;;;;;;4994911;28;20457;-66
2023/01/11 07:10:36;;;;;;;1.60;0.80;;;9.30;87.00;;;;;;4994912;28;20445;-65
2023/01/11 07:13:03;;;;;;;1.40;0.60;;;9.10;87.40;;;;;;4994929;28;20519;-66
2023/01/11 07:15:29;;;;;;;1.50;0.63;;;9.10;87.50;;;;;;4994800;28;20539;-66
2023/01/11 07:17:57;;;;;;;1.40;0.63;;;9.10;87.50;;;;;;4994827;28;20468;-66
2023/01/11 07:20:25;;;;;;;1.47;0.70;;;9.00;87.60;;;;;;4994747;28;20449;-66
2023/01/11 07:23:00;;;;;;;1.80;0.80;;;9.00;87.60;;;;;;5091506;28;20570;-67
2023/01/11 07:25:28;;;;;;;1.53;0.70;;;9.00;87.70;;;;;;5090857;28;20449;-67
2023/01/11 07:27:58;;;;;;;1.40;0.60;;;9.10;87.60;;;;;;5090489;28;20859;-67
2023/01/11 07:30:27;;;;;;;1.50;0.70;;;9.10;87.20;;;;;;5090317;28;20876;-67
2023/01/11 07:32:54;;;;;;;1.60;0.90;;;9.20;87.10;;;;;;5090714;28;20445;-68
2023/01/11 07:35:21;;;;;;;1.43;0.63;;;9.20;87.00;;;;;;5090664;28;20449;-66
2023/01/11 07:37:47;;;;;;;1.60;0.70;;;9.20;87.10;;;;;;5090988;28;20448;-67
2023/01/11 07:40:17;;;;;;;1.70;0.80;;;9.20;87.10;;;;;;5090275;28;20922;-67
2023/01/11 07:45:33;;;;;;;1.40;0.60;;;9.20;87.10;;;;;;5090534;28;20775;-68
2023/01/11 07:48:00;;;;;;;1.87;0.90;;;9.30;87.00;;;;;;5090537;28;20437;-67
2023/01/11 07:50:26;;;;;;;1.57;0.73;;;9.30;86.90;;;;;;5090101;28;20954;-67
2023/01/11 07:52:53;;;;;;;1.80;0.70;;;9.30;87.10;;;;;;5090048;28;20444;-67
2023/01/11 07:55:21;;;;;;;1.60;0.80;;;9.40;86.70;;;;;;5090451;28;20441;-67
2023/01/11 07:57:48;;;;;;;2.07;0.73;;;9.30;86.90;;;;;;5090170;28;21011;-67
2023/01/11 08:00:16;;;;;;;1.63;0.80;;;9.30;87.20;;;;;;5089852;28;20937;-67
2023/01/11 08:02:42;;;;;;;1.50;0.70;;;9.40;86.90;;;;;;5089989;28;20480;-67
2023/01/11 08:05:10;;;;;;;1.90;0.80;;;9.40;86.80;;;;;;5090108;28;20528;-67
2023/01/11 08:07:36;;;;;;;1.50;0.70;;;9.40;86.80;;;;;;5090028;28;20456;-67
2023/01/11 08:10:03;;;;;;;1.70;0.70;;;9.40;86.90;;;;;;5089960;28;20479;-67
2023/01/11 08:15:31;;;;;;;1.77;0.77;;;9.30;87.30;;;;;;5047394;28;20444;-67
2023/01/11 08:17:58;;;;;;;1.70;0.70;;;9.40;87.10;;;;;;5047753;28;20451;-68
2023/01/11 08:20:25;;;;;;;1.50;0.63;;;9.50;86.70;;;;;;5066022;28;20506;-68
2023/01/11 08:22:52;;;;;;;1.50;0.63;;;9.50;86.80;;;;;;5089418;28;20572;-67
2023/01/11 08:25:19;;;;;;;2.57;0.80;;;9.60;86.40;;;;;;5090043;28;20498;-67
2023/01/11 08:27:47;;;;;;;1.43;0.67;;;9.60;86.40;;;;;;5089839;28;20441;-68
2023/01/11 08:30:14;;;;;;;2.17;0.93;;;9.70;86.10;;;;;;5089694;28;20445;-67
2023/01/11 08:32:41;;;;;;;1.50;0.70;;;9.70;86.10;;;;;;5085559;28;20469;-67
2023/01/11 08:35:08;;;;;;;2.27;0.80;;;9.70;86.10;;;;;;5076085;28;20446;-67
2023/01/11 08:37:35;;;;;;;1.50;0.67;;;9.60;86.30;;;;;;5076164;28;20441;-68
2023/01/11 08:40:01;;;;;;;1.90;0.60;;;9.70;86.40;;;;;;5076072;28;20496;-67
2023/01/11 08:42:28;;;;;;;1.73;0.87;;;9.70;86.30;;;;;;5075835;28;20477;-67
2023/01/11 08:44:56;;;;;;;1.70;0.90;;;9.70;86.40;;;;;;5076191;28;20445;-67
2023/01/11 08:47:23;;;;;;;1.60;0.80;;;9.80;86.10;;;;;;5076219;28;20442;-67
2023/01/11 08:49:49;;;;;;;1.60;0.60;;;9.80;86.30;;;;;;5075833;28;20624;-68
2023/01/11 08:52:16;;;;;;;1.60;0.80;;;9.90;86.40;;;;;;5075748;28;20896;-68
2023/01/11 08:54:43;;;;;;;1.70;0.70;;;9.90;86.70;;;;;;5075799;28;20449;-68
2023/01/11 08:57:10;;;;;;;1.40;0.60;;;9.90;86.40;;;;;;5075735;28;20450;-67
2023/01/11 08:59:37;;;;;;;1.47;0.67;;;9.90;86.00;;;;;;5075718;28;20458;-66
2023/01/11 09:02:06;;;;;;;1.40;0.60;;;9.90;86.20;;;;;;5075207;28;21042;-67
2023/01/11 09:04:33;;;;;;;1.50;0.80;;;10.00;86.00;;;;;;5075743;28;20456;-68
2023/01/11 09:07:00;;;;;;;1.47;0.60;;;10.00;85.90;;;;;;5075224;28;21029;-67
2023/01/11 09:09:27;;;;;;;1.43;0.70;;;10.00;85.60;;;;;;5075217;28;20996;-68
2023/01/11 09:11:55;;;;;;;1.50;0.70;;;10.10;85.60;;;;;;5075163;28;20886;-68
2023/01/11 09:14:22;;;;;;;1.50;0.70;;;10.10;85.30;;;;;;5075557;28;20450;-67
2023/01/11 09:16:49;;;;;;;2.43;0.70;;;10.10;85.50;;;;;;5075184;28;20890;-68
2023/01/11 09:19:17;;;;;;;1.60;0.73;;;10.20;85.40;;;;;;5075317;28;20448;-67
2023/01/11 09:21:45;;;;;;;1.40;0.60;;;10.20;85.10;;;;;;5074847;28;20496;-68
2023/01/11 09:24:11;;;;;;;1.70;0.77;;;10.20;84.90;;;;;;5075243;28;20477;-68
2023/01/11 09:26:40;;;;;;;2.10;1.10;;;10.30;85.00;;;;;;5074809;28;20851;-68
2023/01/11 09:29:06;;;;;;;1.50;0.77;;;10.30;84.70;;;;;;5075066;28;20450;-67
2023/01/11 09:31:33;;;;;;;1.40;0.63;;;10.30;84.50;;;;;;5074988;28;20484;-68
2023/01/11 09:34:00;;;;;;;1.60;0.70;;;10.40;84.50;;;;;;5075024;28;20445;-67
2023/01/11 09:36:30;;;;;;;1.63;0.70;;;10.40;84.30;;;;;;5074871;28;20450;-68
2023/01/11 09:39:00;;;;;;;1.83;0.70;;;10.40;84.30;;;;;;5074987;28;20509;-68
2023/01/11 09:41:37;;;;;;;1.50;0.80;;;10.40;84.60;;;;;;5074691;28;20465;-67
2023/01/11 09:44:13;;;;;;;1.90;0.70;;;10.50;84.20;;;;;;5074004;28;20842;-68
2023/01/11 09:46:41;;;;;;;1.70;0.80;;;10.50;84.10;;;;;;5074556;28;20445;-68
2023/01/11 09:49:19;;;;;;;1.50;0.70;;;10.50;84.10;;;;;;5074405;28;20984;-68
2023/01/11 09:51:48;;;;;;;1.50;0.60;;;10.60;84.00;;;;;;5074704;28;20488;-68
2023/01/11 09:54:18;;;;;;;1.53;0.70;;;10.60;83.60;;;;;;5074542;28;20492;-68
2023/01/11 09:56:52;;;;;;;1.50;0.70;;;10.60;83.70;;;;;;5074214;28;20939;-67
2023/01/11 09:59:29;;;;;;;1.60;0.90;;;10.50;83.90;;;;;;5074471;28;20533;-67
2023/01/11 10:02:04;;;;;;;1.63;0.80;;;10.40;84.20;;;;;;5074263;28;20519;-67
2023/01/11 10:05:09;;;;;;;1.50;0.70;;;10.50;84.40;;;;;;5074419;28;20433;-67
2023/01/11 10:07:53;;;;;;;1.60;0.80;;;10.60;83.60;;;;;;5074345;28;20445;-68
2023/01/11 10:10:29;;;;;;;1.80;0.90;;;10.60;84.00;;;;;;5074396;28;20437;-67
2023/01/11 10:13:06;;;;;;;1.80;0.80;;;10.60;83.60;;;;;;5074390;28;20422;-67
2023/01/11 10:15:40;;;;;;;1.57;0.77;;;10.60;83.30;;;;;;5074571;28;20809;-68
2023/01/11 10:18:34;;;;;;;1.40;0.70;;;10.70;83.50;;;;;;5074433;28;20430;-68
2023/01/11 10:21:06;;;;;;;1.70;0.70;;;10.70;83.10;;;;;;5074045;28;20577;-68
2023/01/11 10:23:48;;;;;;;1.60;0.70;;;10.70;83.00;;;;;;5073845;28;20504;-68
2023/01/11 10:26:26;;;;;;;1.63;0.80;;;10.70;83.50;;;;;;5073917;28;20465;-67
2023/01/11 10:29:13;;;;;;;1.87;0.80;;;10.70;83.00;;;;;;5073675;28;20918;-68
2023/01/11 10:31:57;;;;;;;1.70;0.70;;;10.60;83.30;;;;;;5073870;28;20465;-67
2023/01/11 10:34:41;;;;;;;2.10;1.00;;;10.60;83.70;;;;;;5073919;28;20437;-67
2023/01/11 10:37:29;;;;;;;1.80;0.70;;;10.60;83.70;;;;;;5074296;28;20442;-68
2023/01/11 10:40:18;;;;;;;1.73;0.80;;;10.70;83.70;;;;;;5073759;28;20433;-69
2023/01/11 10:42:48;;;;;;;1.60;0.80;;;10.70;83.40;;;;;;5073559;28;20482;-68
2023/01/11 10:45:18;;;;;;;1.50;0.70;;;10.60;84.00;;;;;;5073604;28;20448;-68
2023/01/11 10:47:56;;;;;;;1.90;0.80;;;10.60;84.00;;;;;;5073708;28;20441;-68
2023/01/11 10:50:30;;;;;;;1.80;0.70;;;10.60;84.40;;;;;;5073576;28;20437;-68
2023/01/11 10:53:06;;;;;;;1.60;0.77;;;10.70;84.50;;;;;;5073613;28;20484;-68
2023/01/11 10:55:44;;;;;;;1.50;0.70;;;10.70;84.00;;;;;;5073363;28;20802;-67
2023/01/11 10:58:22;;;;;;;1.63;0.80;;;10.80;83.90;;;;;;5073542;28;20455;-67
2023/01/11 11:00:59;;;;;;;1.50;0.77;;;10.70;84.00;;;;;;5073430;28;20469;-68
2023/01/11 11:03:53;;;;;;;1.57;0.80;;;10.80;84.00;;;;;;5073391;28;20556;-68
2023/01/11 11:06:27;;;;;;;1.50;0.80;;;10.80;83.90;;;;;;5073479;28;20517;-68
2023/01/11 11:09:00;;;;;;;1.70;0.80;;;10.80;84.50;;;;;;5074235;28;20498;-68
2023/01/11 11:11:33;;;;;;;1.93;0.80;;;10.80;84.10;;;;;;5073398;28;20461;-68
2023/01/11 11:14:07;;;;;;;1.50;0.80;;;10.80;84.90;;;;;;5073486;28;20487;-68
2023/01/11 11:16:48;;;;;;;2.20;1.00;;;10.90;84.70;;;;;;5073375;28;20429;-68
2023/01/11 11:19:18;;;;;;;1.60;0.70;;;10.90;84.60;;;;;;5073359;28;20429;-68
2023/01/11 11:21:45;;;;;;;1.50;0.70;;;10.90;84.70;;;;;;5073024;28;20531;-68
2023/01/11 11:24:20;;;;;;;1.70;0.83;;;10.90;85.20;;;;;;5073251;28;20492;-68
2023/01/11 11:26:54;;;;;;;1.60;0.70;;;10.70;85.60;;;;;;5073221;28;20433;-67
2023/01/11 11:29:29;;;;;;;1.53;0.70;;;10.70;86.30;;;;;;5073315;28;20434;-68
2023/01/11 11:31:58;;;;;;;1.60;0.80;;;10.70;86.60;;;;;;5073103;28;20472;-67
2023/01/11 11:34:26;;;;;;;1.50;0.70;;;10.70;86.80;;;;;;5073172;28;20449;-67
2023/01/11 11:36:54;;;;;;;1.80;0.90;;;10.70;86.90;;;;;;5073421;28;20541;-67
2023/01/11 11:39:23;;;;;;;1.50;0.70;;;10.90;87.00;;;;;;5073474;28;20457;-68
2023/01/11 11:41:52;;;;;;;1.50;0.70;;;10.90;86.70;;;;;;5073042;28;20466;-68
2023/01/11 11:44:23;;;;;;;1.40;0.60;;;10.90;86.60;;;;;;5073089;28;20500;-67
2023/01/11 11:46:57;;;;;;;1.60;0.60;;;10.90;86.90;;;;;;5073072;28;20434;-67
2023/01/11 11:49:24;;;;;;;1.60;0.70;;;10.90;87.30;;;;;;5072946;28;20532;-67
2023/01/11 11:51:52;;;;;;;1.40;0.70;;;10.90;87.30;;;;;;5072874;28;20461;-67
2023/01/11 11:54:22;;;;;;;1.60;0.80;;;11.00;87.30;;;;;;5072909;28;20853;-67
2023/01/11 11:56:50;;;;;;;3.30;1.00;;;11.10;87.20;;;;;;5072886;28;20492;-67
2023/01/11 11:59:20;;;;;;;1.70;0.70;;;11.00;87.10;;;;;;5072890;28;20454;-68
2023/01/11 12:01:54;;;;;;;1.60;0.80;;;11.00;87.50;;;;;;5073109;28;20609;-67
2023/01/11 12:04:23;;;;;;;1.67;0.77;;;11.00;87.50;;;;;;5073185;28;20461;-68
2023/01/11 12:07:06;;;;;;;1.40;0.60;;;10.90;87.80;;;;;;5072810;28;20938;-68
2023/01/11 12:09:35;;;;;;;2.10;0.97;;;10.90;88.80;;;;;;5075851;28;20426;-67
2023/01/11 12:12:04;;;;;;;1.60;0.80;;;10.90;89.00;;;;;;5078616;28;20466;-68
2023/01/11 12:14:34;;;;;;;1.60;0.80;;;11.00;88.60;;;;;;5080052;28;20821;-68
2023/01/11 12:17:15;;;;;;;1.50;0.70;;;11.00;88.50;;;;;;5079575;28;20462;-67
2023/01/11 12:19:46;;;;;;;1.80;0.90;;;11.10;88.30;;;;;;5079537;28;20426;-68
2023/01/11 12:22:18;;;;;;;2.43;0.90;;;11.10;88.30;;;;;;5077891;28;20478;-67
2023/01/11 12:24:45;;;;;;;1.83;0.83;;;11.00;88.20;;;;;;5077357;28;20456;-68
2023/01/11 12:27:27;;;;;;;1.50;0.80;;;11.00;88.50;;;;;;5077273;28;20456;-68
2023/01/11 12:30:16;;;;;;;1.50;0.73;;;11.10;88.80;;;;;;5077496;28;20453;-68
2023/01/11 12:33:12;;;;;;;1.70;0.93;;;11.20;88.20;;;;;;5077497;28;20461;-67
2023/01/11 12:35:49;;;;;;;1.70;0.80;;;11.40;88.90;;;;;;5077535;28;20525;-67
2023/01/11 12:38:31;;;;;;;1.57;0.80;;;11.30;88.10;;;;;;5077080;28;20437;-66
2023/01/11 12:41:42;;;;;;;1.47;0.73;;;11.10;88.20;;;;;;5076980;28;20473;-68
2023/01/11 12:44:14;;;;;;;1.73;0.90;;;11.10;88.60;;;;;;5076111;28;20473;-68
2023/01/11 12:46:54;;;;;;;1.50;0.80;;;11.00;89.30;;;;;;5076454;28;20458;-68
2023/01/11 12:49:33;;;;;;;1.60;0.73;;;11.00;89.40;;;;;;5075850;28;20432;-68
2023/01/11 12:52:27;;;;;;;3.10;1.30;;;11.00;89.70;;;;;;5075996;28;20469;-68
2023/01/11 12:55:11;;;;;;;1.50;0.83;;;11.00;90.10;;;;;;5075902;28;20483;-68
2023/01/11 12:57:49;;;;;;;1.60;0.70;;;11.00;90.30;;;;;;5075984;28;20434;-67
2023/01/11 13:00:26;;;;;;;1.50;0.70;;;11.00;90.60;;;;;;5075809;28;20480;-67
2023/01/11 13:03:18;;;;;;;2.20;0.80;;;11.00;91.10;;;;;;5075556;28;20471;-68
2023/01/11 13:05:56;;;;;;;1.67;0.80;;;11.00;91.10;;;;;;5073314;28;20931;-67
2023/01/11 13:08:32;;;;;;;2.33;1.07;;;11.00;91.20;;;;;;5076374;28;20422;-68
2023/01/11 13:11:10;;;;;;;2.77;1.20;;;11.00;91.40;;;;;;5075565;28;20493;-68
2023/01/11 13:13:49;;;;;;;2.00;1.10;;;11.10;91.70;;;;;;5075396;28;20430;-68
2023/01/11 13:16:25;;;;;;;1.90;0.70;;;11.20;91.10;;;;;;5075658;28;20438;-68
2023/01/11 13:19:00;;;;;;;1.70;0.80;;;11.30;90.80;;;;;;5075446;28;20433;-68
2023/01/11 13:21:32;;;;;;;1.70;0.80;;;11.30;90.90;;;;;;5075050;28;20988;-68
2023/01/11 13:24:05;;;;;;;1.80;0.80;;;11.30;90.40;;;;;;5075612;28;20477;-68
2023/01/11 13:26:36;;;;;;;1.80;1.00;;;11.20;91.00;;;;;;5075765;28;20430;-68
2023/01/11 13:29:06;;;;;;;1.70;0.80;;;11.20;91.50;;;;;;5075214;28;20426;-67
2023/01/11 13:31:36;;;;;;;1.70;0.80;;;11.40;91.60;;;;;;5074691;28;20889;-67
2023/01/11 13:34:07;;;;;;;3.70;1.00;;;11.50;90.90;;;;;;5075107;28;20450;-68
2023/01/11 13:36:39;;;;;;;1.70;0.80;;;11.30;90.60;;;;;;5075025;28;20430;-67
2023/01/11 13:39:13;;;;;;;1.80;0.90;;;11.20;91.10;;;;;;5074912;28;20433;-67
2023/01/11 13:41:45;;;;;;;2.20;1.00;;;11.10;91.20;;;;;;5074811;28;20523;-67
2023/01/11 13:44:18;;;;;;;1.50;0.70;;;11.30;91.80;;;;;;5074856;28;20511;-67
2023/01/11 13:46:58;;;;;;;2.20;1.10;;;11.40;91.40;;;;;;5074808;28;20430;-67
2023/01/11 13:49:47;;;;;;;1.60;0.80;;;11.30;91.00;;;;;;5074786;28;20483;-67
2023/01/11 13:52:16;;;;;;;1.60;0.90;;;11.30;91.30;;;;;;5074593;28;20884;-67
2023/01/11 13:54:53;;;;;;;1.60;0.80;;;11.30;91.50;;;;;;5074662;28;20437;-67
2023/01/11 13:57:24;;;;;;;1.60;0.70;;;11.30;91.50;;;;;;5074642;28;20445;-67
2023/01/11 13:59:57;;;;;;;1.50;0.80;;;11.30;91.10;;;;;;5074204;28;20942;-67
2023/01/11 14:02:34;;;;;;;1.80;0.90;;;11.30;90.90;;;;;;5074061;28;20888;-67
2023/01/11 14:05:06;;;;;;;1.50;0.80;;;11.40;91.20;;;;;;5074066;28;20895;-67
2023/01/11 14:07:44;;;;;;;1.60;0.80;;;11.40;90.70;;;;;;5074363;28;20479;-67
2023/01/11 14:10:23;;;;;;;1.67;0.83;;;11.30;91.30;;;;;;5074857;28;20441;-67
2023/01/11 14:14:12;;;;;;;1.57;0.80;;;11.40;91.30;;;;;;5074919;28;20844;-69
2023/01/11 14:16:15;;;;;;;1.60;0.70;;;11.50;91.10;;;;;;5074394;28;20812;-68
2023/01/11 14:18:48;;;;;;;1.50;0.70;;;11.60;90.90;;;;;;5074268;28;20911;-68
2023/01/11 14:21:22;;;;;;;1.70;0.80;;;11.50;90.40;;;;;;5074519;28;20486;-68
2023/01/11 14:23:52;;;;;;;1.80;0.90;;;11.60;90.50;;;;;;5074494;28;20473;-68
2023/01/11 14:26:46;;;;;;;1.90;1.00;;;11.60;89.80;;;;;;5074319;28;20453;-67
2023/01/11 14:29:36;;;;;;;1.80;1.00;;;11.70;90.30;;;;;;5048274;28;20457;-68
2023/01/11 14:32:36;;;;;;;1.70;0.90;;;11.80;89.90;;;;;;5074466;28;20523;-71
2023/01/11 14:35:43;;;;;;;1.80;0.87;;;11.80;89.40;;;;;;5021306;28;20502;-67
2023/01/11 14:38:34;;;;;;;1.80;0.93;;;11.80;89.00;;;;;;5073804;28;20430;-67
2023/01/11 14:41:29;;;;;;;2.00;0.97;;;11.90;89.10;;;;;;5073691;28;20465;-68
2023/01/11 14:44:17;;;;;;;1.70;0.80;;;12.00;88.60;;;;;;5073153;28;20504;-68
2023/01/11 14:47:01;;;;;;;2.23;1.23;;;12.10;88.50;;;;;;5073328;28;20488;-68
2023/01/11 14:49:44;;;;;;;2.20;0.87;;;12.20;87.60;;;;;;5073419;28;20904;-67
2023/01/11 14:52:16;;;;;;;1.77;0.87;;;12.00;87.50;;;;;;5073467;28;20461;-67
2023/01/11 14:54:44;;;;;;;2.03;1.00;;;12.00;87.40;;;;;;5073728;28;20482;-67
2023/01/11 14:57:36;;;;;;;2.17;0.90;;;12.00;86.80;;;;;;5073395;28;20528;-67
2023/01/11 15:00:04;;;;;;;1.60;0.80;;;11.90;86.60;;;;;;5073371;28;20532;-66
2023/01/11 15:02:31;;;;;;;2.00;0.93;;;11.90;86.70;;;;;;5073147;28;20473;-67
2023/01/11 15:05:26;;;;;;;1.80;0.90;;;11.70;85.90;;;;;;5073297;28;20523;-67
2023/01/11 15:08:19;;;;;;;1.80;1.00;;;11.70;86.30;;;;;;5073371;28;20430;-67
2023/01/11 15:10:56;;;;;;;1.90;0.97;;;11.70;85.90;;;;;;5073327;28;20470;-67
2023/01/11 15:13:26;;;;;;;1.60;0.97;;;11.50;85.50;;;;;;5073269;28;20472;-68
2023/01/11 15:18:52;;;;;;;1.50;0.70;;;11.50;86.20;;;;;;5073347;28;20397;-68
2023/01/11 15:21:23;;;;;;;1.60;0.80;;;11.40;86.60;;;;;;5073602;28;20477;-69
2023/01/11 15:23:54;;;;;;;1.70;0.70;;;11.30;86.30;;;;;;5073266;28;20454;-68
2023/01/11 15:26:23;;;;;;;1.87;0.80;;;11.00;84.70;;;;;;5073283;28;20430;-67
2023/01/11 15:28:51;;;;;;;1.70;0.80;;;11.00;84.40;;;;;;5073181;28;20519;-67
2023/01/11 15:31:42;;;;;;;1.90;1.03;;;10.80;84.90;;;;;;5073061;28;20508;-67
2023/01/11 15:34:24;;;;;;;1.80;1.03;;;10.90;85.50;;;;;;5073280;28;20475;-67
2023/01/11 15:36:53;;;;;;;1.80;0.90;;;10.80;85.10;;;;;;5073136;28;20789;-67
2023/01/11 15:39:31;;;;;;;2.03;0.80;;;10.80;84.80;;;;;;5072629;28;20438;-67
2023/01/11 15:42:17;;;;;;;3.10;1.67;;;10.90;84.00;;;;;;5073596;28;20540;-67
2023/01/11 15:45:18;;;;;;;4.63;1.30;;;10.90;83.50;;;;;;5076807;28;20511;-67
2023/01/11 15:48:11;;;;;;;2.00;0.90;;;10.90;83.70;;;;;;5076834;28;20871;-66
2023/01/11 15:51:03;;;;;;;1.97;0.80;;;10.90;84.00;;;;;;5076897;28;20429;-67
2023/01/11 15:53:54;;;;;;;1.50;0.70;;;10.90;83.80;;;;;;5076836;28;20429;-68
2023/01/11 15:56:51;;;;;;;2.60;1.40;;;10.90;83.50;;;;;;5076563;28;20843;-67
2023/01/11 16:00:00;;;;;;;2.30;1.20;;;10.90;83.40;;;;;;5076600;28;20968;-67
2023/01/11 16:03:11;;;;;;;2.00;1.07;;;10.80;83.60;;;;;;5076704;28;20519;-66
2023/01/11 16:05:42;;;;;;;3.30;0.90;;;10.90;84.10;;;;;;5076703;28;20422;-67
2023/01/11 16:08:18;;;;;;;1.80;1.10;;;10.70;83.70;;;;;;5076652;28;20794;-67
2023/01/11 16:10:51;;;;;;;2.50;1.00;;;10.60;84.20;;;;;;5076295;28;21039;-67
2023/01/11 16:13:43;;;;;;;2.60;1.00;;;10.50;84.40;;;;;;5076262;28;20778;-67
2023/01/11 16:16:19;;;;;;;1.90;0.80;;;10.20;84.80;;;;;;5077001;28;20430;-67
2023/01/11 16:18:49;;;;;;;2.20;1.13;;;10.20;85.40;;;;;;5076522;28;20451;-68
2023/01/11 16:21:20;;;;;;;2.60;1.07;;;10.20;85.40;;;;;;5075874;28;20848;-67
2023/01/11 16:23:47;;;;;;;2.87;1.27;;;10.10;85.00;;;;;;5076268;28;20469;-66
2023/01/11 16:26:16;;;;;;;2.63;1.00;;;10.00;85.80;;;;;;5076291;28;20494;-66
2023/01/11 16:28:49;;;;;;;2.37;1.30;;;9.90;85.50;;;;;;5076336;28;20448;-65
2023/01/11 16:31:16;;;;;;;1.80;0.90;;;10.00;85.30;;;;;;5075744;28;20844;-66
2023/01/11 16:33:43;;;;;;;2.33;1.03;;;10.00;85.50;;;;;;5076144;28;20529;-66
2023/01/11 16:36:16;;;;;;;2.10;1.00;;;10.10;85.40;;;;;;5076172;28;20442;-67
2023/01/11 16:38:48;;;;;;;2.70;1.20;;;10.20;84.80;;;;;;5076237;28;20473;-66
2023/01/11 16:41:16;;;;;;;2.23;1.37;;;10.00;84.70;;;;;;5076245;28;20461;-65
2023/01/11 16:43:52;;;;;;;3.00;1.00;;;9.90;84.90;;;;;;5075815;28;21062;-66
2023/01/11 16:46:55;;;;;;;2.67;1.10;;;9.90;84.60;;;;;;5075935;28;20434;-66
2023/01/11 16:49:22;;;;;;;2.13;1.23;;;9.90;84.80;;;;;;5076029;28;20479;-66
2023/01/11 16:51:49;;;;;;;2.03;0.97;;;10.00;84.40;;;;;;5076001;28;20523;-66
2023/01/11 16:54:22;;;;;;;2.60;1.27;;;10.00;84.00;;;;;;5075520;28;20441;-66
2023/01/11 16:56:50;;;;;;;2.23;1.00;;;10.00;84.50;;;;;;5075784;28;20868;-66
2023/01/11 16:59:29;;;;;;;2.47;1.00;;;10.20;83.90;;;;;;5075678;28;21004;-66
2023/01/11 17:01:58;;;;;;;2.00;1.07;;;10.20;83.00;;;;;;5075552;28;20469;-66
2023/01/11 17:04:27;;;;;;;2.00;1.13;;;10.30;82.80;;;;;;5076227;28;20492;-66
2023/01/11 17:06:54;;;;;;;2.00;1.00;;;10.30;82.90;;;;;;5077229;28;20446;-67
2023/01/11 17:09:21;;;;;;;1.97;1.00;;;10.20;82.50;;;;;;5076630;28;20794;-67
2023/01/11 17:11:51;;;;;;;2.33;1.00;;;10.20;82.80;;;;;;5076442;28;20470;-67
2023/01/11 17:14:31;;;;;;;3.30;1.47;;;10.40;82.50;;;;;;5076664;28;20456;-67
2023/01/11 17:17:01;;;;;;;3.40;1.20;;;10.50;82.20;;;;;;5076315;28;20789;-66
2023/01/11 17:19:29;;;;;;;1.67;1.07;;;10.60;81.50;;;;;;5076341;28;20464;-66
2023/01/11 17:22:02;;;;;;;2.30;1.00;;;10.30;81.50;;;;;;5076209;28;20477;-67
2023/01/11 17:24:29;;;;;;;2.60;1.23;;;10.20;82.40;;;;;;5075882;28;20502;-67
2023/01/11 17:27:00;;;;;;;3.83;1.47;;;10.30;82.40;;;;;;5076926;28;20810;-67
2023/01/11 17:29:32;;;;;;;3.03;1.50;;;10.30;82.50;;;;;;5076290;28;20438;-66
2023/01/11 17:32:01;;;;;;;2.87;1.60;;;10.20;82.40;;;;;;5075649;28;21092;-67